Time;durP1;ratioP1;P1;durP2;ratioP2;P2;SDS_P1;SDS_P2;PMS_P1;PMS_P2;Temp;Humidity;BMP_temperature;BMP_pressure;BME280_temperature;BME280_humidity;BME280_pressure;Samples;Min_cycle;Max_cycle;Signal;HPM_P1;HPM_P2
2023/02/03 00:02:18;;;;;;;0.40;0.40;;;;;;;;;;4948829;28;20219;-82
2023/02/03 00:04:43;;;;;;;1.03;0.50;;;;;;;;;;4923299;28;20678;-84
2023/02/03 00:07:10;;;;;;;0.40;0.40;;;;;;;;;;4936873;28;20699;-83
2023/02/03 00:09:38;;;;;;;0.17;0.17;;;;;;;;;;4964233;28;20322;-81
2023/02/03 00:12:03;;;;;;;0.47;0.47;;;;;;;;;;4951620;28;20227;-84
2023/02/03 00:14:29;;;;;;;1.60;0.50;;;;;;;;;;4947923;28;20297;-83
2023/02/03 00:16:54;;;;;;;0.20;0.20;;;;;;;;;;4922632;29;20612;-82
2023/02/03 00:19:20;;;;;;;0.80;0.80;;;;;;;;;;4933767;28;20219;-83
2023/02/03 00:21:50;;;;;;;0.10;0.10;;;;;;;;;;4940828;28;20233;-83
2023/02/03 00:24:19;;;;;;;0.40;0.40;;;;;;;;;;4955931;28;20220;-85
2023/02/03 00:26:49;;;;;;;0.47;0.47;;;;;;;;;;4952816;28;20230;-83
2023/02/03 00:29:17;;;;;;;0.13;0.13;;;;;;;;;;4960372;28;20270;-83
2023/02/03 00:31:43;;;;;;;0.50;0.50;;;;;;;;;;4966623;28;20239;-82
2023/02/03 00:34:08;;;;;;;0.30;0.30;;;;;;;;;;4924768;28;20230;-84
2023/02/03 00:36:35;;;;;;;0.17;0.17;;;;;;;;;;4937925;28;20235;-82
2023/02/03 00:39:05;;;;;;;0.20;0.20;;;;;;;;;;4929973;28;20250;-85
2023/02/03 00:41:32;;;;;;;0.10;0.10;;;;;;;;;;4950323;28;20259;-83
2023/02/03 00:44:00;;;;;;;0.33;0.33;;;;;;;;;;4949035;28;20214;-83
2023/02/03 00:46:34;;;;;;;0.53;0.53;;;;;;;;;;4936913;28;20229;-84
2023/02/03 00:49:04;;;;;;;0.23;0.23;;;;;;;;;;4966699;28;20225;-84
2023/02/03 00:51:32;;;;;;;0.53;0.53;;;;;;;;;;4915919;29;20219;-85
2023/02/03 00:53:59;;;;;;;0.17;0.17;;;;;;;;;;4919236;29;20267;-83
2023/02/03 00:56:27;;;;;;;0.10;0.10;;;;;;;;;;4938481;28;20231;-82
2023/02/03 00:58:55;;;;;;;0.77;0.77;;;;;;;;;;4946722;28;20243;-85
2023/02/03 01:01:21;;;;;;;0.67;0.67;;;;;;;;;;4948799;28;20215;-83
2023/02/03 01:03:49;;;;;;;0.10;0.10;;;;;;;;;;4950494;28;20247;-84
2023/02/03 01:06:17;;;;;;;0.10;0.10;;;;;;;;;;4914136;28;20219;-80
2023/02/03 01:08:45;;;;;;;0.37;0.37;;;;;;;;;;4939426;28;20234;-82
2023/02/03 01:11:13;;;;;;;1.00;1.00;;;;;;;;;;4919345;28;20216;-85
2023/02/03 01:13:39;;;;;;;0.10;0.10;;;;;;;;;;4924233;29;20238;-85
2023/02/03 01:16:08;;;;;;;0.17;0.17;;;;;;;;;;4906619;28;20794;-84
2023/02/03 01:18:33;;;;;;;2.93;1.50;;;;;;;;;;4925756;29;20242;-84
2023/02/03 01:21:10;;;;;;;0.47;0.47;;;;;;;;;;4932475;28;20407;-85
2023/02/03 01:23:36;;;;;;;0.23;0.23;;;;;;;;;;4947279;28;20608;-85
2023/02/03 01:26:06;;;;;;;0.10;0.10;;;;;;;;;;4951095;28;20223;-84
2023/02/03 01:28:36;;;;;;;0.27;0.27;;;;;;;;;;4970613;28;20289;-84
2023/02/03 01:31:08;;;;;;;0.20;0.20;;;;;;;;;;4940318;28;20257;-84
2023/02/03 01:33:39;;;;;;;0.17;0.17;;;;;;;;;;4956418;28;20764;-82
2023/02/03 01:36:08;;;;;;;1.60;1.50;;;;;;;;;;4969146;28;20235;-86
2023/02/03 01:38:35;;;;;;;0.30;0.30;;;;;;;;;;4947103;28;20274;-84
2023/02/03 01:41:00;;;;;;;0.10;0.10;;;;;;;;;;4931422;28;20223;-83
2023/02/03 01:43:30;;;;;;;0.10;0.10;;;;;;;;;;4949534;28;20226;-83
2023/02/03 01:45:58;;;;;;;0.30;0.30;;;;;;;;;;4967429;28;20238;-80
2023/02/03 01:48:24;;;;;;;0.10;0.10;;;;;;;;;;4949097;28;20673;-83
2023/02/03 01:50:52;;;;;;;0.57;0.57;;;;;;;;;;4928123;29;20775;-87
2023/02/03 01:53:20;;;;;;;0.23;0.23;;;;;;;;;;4922532;28;20211;-86
2023/02/03 01:55:46;;;;;;;0.23;0.23;;;;;;;;;;4942414;28;20239;-83
2023/02/03 01:58:19;;;;;;;0.77;0.77;;;;;;;;;;4903217;28;20223;-85
2023/02/03 02:00:50;;;;;;;0.10;0.10;;;;;;;;;;4952092;28;20228;-86
2023/02/03 02:03:16;;;;;;;0.70;0.70;;;;;;;;;;4907187;28;20286;-81
2023/02/03 02:05:50;;;;;;;0.10;0.10;;;;;;;;;;4946942;28;20238;-82
2023/02/03 02:08:17;;;;;;;0.10;0.10;;;;;;;;;;4945038;28;20234;-85
2023/02/03 02:10:42;;;;;;;0.33;0.33;;;;;;;;;;4902366;29;20380;-84
2023/02/03 02:13:08;;;;;;;2.97;1.30;;;;;;;;;;4913190;28;20223;-84
2023/02/03 02:16:08;;;;;;;0.10;0.10;;;;;;;;;;4966704;28;20700;-82
2023/02/03 02:18:38;;;;;;;0.37;0.37;;;;;;;;;;4951996;28;20947;-86
2023/02/03 02:21:31;;;;;;;0.63;0.63;;;;;;;;;;4952574;28;20218;-84
2023/02/03 02:24:31;;;;;;;0.17;0.17;;;;;;;;;;4964987;28;20227;-84
2023/02/03 02:27:23;;;;;;;0.10;0.10;;;;;;;;;;4929334;29;20226;-85
2023/02/03 02:30:04;;;;;;;0.10;0.10;;;;;;;;;;4953012;28;20236;-84
2023/02/03 02:32:51;;;;;;;0.60;0.60;;;;;;;;;;4965649;28;20703;-84
2023/02/03 02:35:32;;;;;;;0.23;0.23;;;;;;;;;;4962215;28;20709;-81
2023/02/03 02:38:01;;;;;;;0.30;0.30;;;;;;;;;;4969666;28;20603;-85
2023/02/03 02:40:36;;;;;;;0.10;0.10;;;;;;;;;;4960944;28;20681;-83
2023/02/03 02:43:42;;;;;;;0.10;0.10;;;;;;;;;;4932074;28;20225;-83
2023/02/03 02:46:13;;;;;;;0.30;0.30;;;;;;;;;;4967129;28;20222;-82
2023/02/03 02:48:48;;;;;;;0.10;0.10;;;;;;;;;;4947559;28;20226;-82
2023/02/03 02:51:16;;;;;;;0.20;0.20;;;;;;;;;;4936930;28;20222;-85
2023/02/03 02:53:48;;;;;;;0.20;0.20;;;;;;;;;;4966468;28;20257;-82
2023/02/03 02:56:14;;;;;;;0.10;0.10;;;;;;;;;;4961856;28;20223;-86
2023/02/03 02:58:43;;;;;;;0.10;0.10;;;;;;;;;;4937024;28;20227;-84
2023/02/03 03:01:08;;;;;;;0.10;0.10;;;;;;;;;;4949956;28;20278;-82
2023/02/03 03:03:39;;;;;;;0.10;0.10;;;;;;;;;;4951216;28;20286;-82
2023/02/03 03:06:10;;;;;;;0.77;0.77;;;;;;;;;;4966492;28;20229;-84
2023/02/03 03:08:54;;;;;;;0.17;0.17;;;;;;;;;;4939766;28;20659;-82
2023/02/03 03:11:22;;;;;;;0.20;0.20;;;;;;;;;;4932245;28;20637;-83
2023/02/03 03:13:51;;;;;;;0.20;0.20;;;;;;;;;;4941445;28;20234;-84
2023/02/03 03:16:24;;;;;;;0.53;0.53;;;;;;;;;;4921558;28;20239;-82
2023/02/03 03:18:55;;;;;;;0.10;0.10;;;;;;;;;;4952277;28;20285;-82
2023/02/03 03:21:23;;;;;;;0.30;0.30;;;;;;;;;;4945457;28;20354;-84
2023/02/03 03:23:49;;;;;;;0.10;0.10;;;;;;;;;;4952745;28;20227;-84
2023/02/03 03:26:31;;;;;;;0.10;0.10;;;;;;;;;;4950247;28;20528;-83
2023/02/03 03:29:02;;;;;;;0.10;0.10;;;;;;;;;;4937552;28;20241;-86
2023/02/03 03:31:35;;;;;;;0.20;0.20;;;;;;;;;;4945233;28;20230;-84
2023/02/03 03:34:00;;;;;;;0.10;0.10;;;;;;;;;;4931134;28;20226;-85
2023/02/03 03:36:31;;;;;;;0.20;0.20;;;;;;;;;;4937323;28;20237;-82
2023/02/03 03:39:20;;;;;;;0.10;0.10;;;;;;;;;;4944751;28;20226;-88
2023/02/03 03:42:07;;;;;;;0.20;0.20;;;;;;;;;;4964531;28;20238;-84
2023/02/03 03:44:37;;;;;;;0.10;0.10;;;;;;;;;;4963780;28;20638;-83
2023/02/03 03:47:09;;;;;;;0.10;0.10;;;;;;;;;;4939162;28;20223;-85
2023/02/03 03:49:39;;;;;;;0.30;0.30;;;;;;;;;;4936076;28;20943;-84
2023/02/03 03:52:07;;;;;;;5.30;4.40;;;;;;;;;;4929001;28;20302;-86
2023/02/03 03:54:34;;;;;;;6.93;6.33;;;;;;;;;;4964982;28;20231;-82
2023/02/03 03:57:28;;;;;;;8.67;7.73;;;;;;;;;;4956512;28;20222;-83
2023/02/03 03:59:54;;;;;;;9.07;7.87;;;;;;;;;;4955967;28;20237;-86
2023/02/03 04:02:19;;;;;;;6.90;6.20;;;;;;;;;;4965406;28;20230;-84
2023/02/03 04:04:48;;;;;;;7.93;7.13;;;;;;;;;;4923333;29;20348;-85
2023/02/03 04:07:16;;;;;;;7.73;7.00;;;;;;;;;;4949967;28;20230;-82
2023/02/03 04:09:44;;;;;;;8.63;6.93;;;;;;;;;;4957942;28;20885;-83
2023/02/03 04:12:15;;;;;;;7.03;6.33;;;;;;;;;;4899773;28;20219;-83
2023/02/03 04:14:43;;;;;;;8.37;7.23;;;;;;;;;;4957373;28;20720;-83
2023/02/03 04:17:09;;;;;;;8.57;6.87;;;;;;;;;;4901637;28;20267;-82
2023/02/03 04:19:34;;;;;;;7.83;7.07;;;;;;;;;;4940266;28;20219;-83
2023/02/03 04:21:59;;;;;;;10.47;6.63;;;;;;;;;;4956784;28;20215;-85
2023/02/03 04:24:27;;;;;;;7.70;6.90;;;;;;;;;;4900971;28;20693;-80
2023/02/03 04:26:53;;;;;;;7.47;6.70;;;;;;;;;;4951224;28;21044;-83
2023/02/03 04:29:24;;;;;;;6.07;5.50;;;;;;;;;;4935602;28;20306;-81
2023/02/03 04:31:49;;;;;;;7.80;4.80;;;;;;;;;;4932668;29;20231;-84
2023/02/03 04:34:15;;;;;;;8.47;5.83;;;;;;;;;;4950202;28;20609;-82
2023/02/03 04:36:45;;;;;;;5.93;5.43;;;;;;;;;;4951514;28;20227;-83
2023/02/03 04:39:11;;;;;;;7.60;5.83;;;;;;;;;;4939971;28;20219;-84
2023/02/03 04:41:36;;;;;;;9.07;5.43;;;;;;;;;;4934018;29;20231;-84
2023/02/03 04:44:02;;;;;;;6.17;5.57;;;;;;;;;;4967535;28;20223;-82
2023/02/03 04:46:32;;;;;;;8.57;5.80;;;;;;;;;;4956380;28;20221;-83
2023/02/03 04:48:58;;;;;;;6.03;5.43;;;;;;;;;;4953492;28;20223;-82
2023/02/03 04:51:23;;;;;;;7.60;5.17;;;;;;;;;;4937476;28;20256;-86
2023/02/03 04:53:49;;;;;;;6.73;4.43;;;;;;;;;;4920371;28;20215;-82
2023/02/03 04:56:15;;;;;;;7.13;5.33;;;;;;;;;;4946906;28;20295;-82
2023/02/03 04:58:40;;;;;;;7.30;4.97;;;;;;;;;;4932203;28;20302;-83
2023/02/03 05:01:07;;;;;;;5.70;4.60;;;;;;;;;;4920866;28;20230;-83
2023/02/03 05:03:33;;;;;;;5.07;4.57;;;;;;;;;;4938303;28;20420;-85
2023/02/03 05:06:02;;;;;;;6.97;5.37;;;;;;;;;;4954387;28;20229;-84
2023/02/03 05:08:37;;;;;;;5.83;5.03;;;;;;;;;;4899177;29;20227;-81
2023/02/03 05:11:03;;;;;;;7.57;5.23;;;;;;;;;;4924331;29;20222;-84
2023/02/03 05:13:31;;;;;;;6.07;4.73;;;;;;;;;;4963045;28;20219;-84
2023/02/03 05:15:59;;;;;;;7.17;5.30;;;;;;;;;;4931149;28;20234;-82
2023/02/03 05:18:25;;;;;;;8.87;5.13;;;;;;;;;;4946546;28;20231;-85
2023/02/03 05:20:55;;;;;;;6.83;5.20;;;;;;;;;;4955867;28;20254;-80
2023/02/03 05:23:20;;;;;;;7.23;4.63;;;;;;;;;;4963494;28;20231;-82
2023/02/03 05:25:48;;;;;;;5.03;4.57;;;;;;;;;;4952013;28;20235;-84
2023/02/03 05:28:17;;;;;;;6.37;4.73;;;;;;;;;;4938865;28;20786;-81
2023/02/03 05:30:43;;;;;;;6.37;4.87;;;;;;;;;;4943001;28;20231;-81
2023/02/03 05:33:08;;;;;;;8.33;5.23;;;;;;;;;;4958026;28;20238;-82
2023/02/03 05:35:34;;;;;;;6.87;5.03;;;;;;;;;;4931259;29;20258;-84
2023/02/03 05:38:00;;;;;;;6.53;4.53;;;;;;;;;;4951252;28;20218;-85
2023/02/03 05:43:10;;;;;;;8.87;4.83;;;;;;;;;;4954657;28;20726;-81
2023/02/03 05:45:35;;;;;;;5.13;4.47;;;;;;;;;;4951626;28;20226;-83
2023/02/03 05:48:04;;;;;;;5.23;4.60;;;;;;;;;;4950147;28;20692;-84
2023/02/03 05:50:32;;;;;;;5.43;4.83;;;;;;;;;;4938470;28;20222;-82
2023/02/03 05:53:06;;;;;;;8.67;4.90;;;;;;;;;;4938997;28;20294;-85
2023/02/03 05:55:31;;;;;;;5.80;4.47;;;;;;;;;;4930088;29;20443;-82
2023/02/03 05:58:00;;;;;;;6.90;5.03;;;;;;;;;;4937411;28;20241;-84
2023/02/03 06:00:28;;;;;;;7.07;4.80;;;;;;;;;;4952656;28;20290;-83
2023/02/03 06:02:54;;;;;;;6.30;4.40;;;;;;;;;;4934663;28;20222;-84
2023/02/03 06:05:22;;;;;;;5.73;4.93;;;;;;;;;;4935217;28;20308;-82
2023/02/03 06:07:51;;;;;;;5.63;4.80;;;;;;;;;;4920919;29;20272;-85
2023/02/03 06:10:16;;;;;;;7.77;5.10;;;;;;;;;;4948038;28;20246;-86
2023/02/03 06:12:44;;;;;;;6.13;4.67;;;;;;;;;;4956743;28;20233;-87
2023/02/03 06:15:47;;;;;;;8.00;5.00;;;;;;;;;;4931006;28;20219;-80
2023/02/03 06:18:12;;;;;;;6.43;5.07;;;;;;;;;;4950835;28;20227;-83
2023/02/03 06:20:40;;;;;;;6.10;4.57;;;;;;;;;;4950078;28;20239;-81
2023/02/03 06:23:11;;;;;;;6.97;4.90;;;;;;;;;;4903302;28;20227;-86
2023/02/03 06:25:36;;;;;;;8.20;5.10;;;;;;;;;;4966541;28;20370;-83
2023/02/03 06:28:04;;;;;;;9.53;4.90;;;;;;;;;;4968408;28;20767;-83
2023/02/03 06:30:32;;;;;;;7.40;5.07;;;;;;;;;;4935512;28;20230;-80
2023/02/03 06:32:58;;;;;;;6.60;4.83;;;;;;;;;;4943538;28;20235;-83
2023/02/03 06:35:28;;;;;;;5.27;4.87;;;;;;;;;;4937929;28;20363;-82
2023/02/03 06:37:54;;;;;;;5.13;4.63;;;;;;;;;;4952299;28;20230;-82
2023/02/03 06:40:19;;;;;;;5.30;4.77;;;;;;;;;;4933093;28;20223;-83
2023/02/03 06:42:46;;;;;;;8.17;4.30;;;;;;;;;;4952027;28;20226;-81
2023/02/03 06:45:11;;;;;;;9.47;4.83;;;;;;;;;;4961590;28;20219;-82
2023/02/03 06:47:41;;;;;;;6.57;5.07;;;;;;;;;;4945754;28;20719;-82
2023/02/03 06:50:12;;;;;;;6.77;5.10;;;;;;;;;;4948259;28;20268;-82
2023/02/03 06:52:38;;;;;;;9.73;5.40;;;;;;;;;;4947114;28;20681;-86
2023/02/03 06:55:04;;;;;;;6.57;4.70;;;;;;;;;;4947314;28;20218;-84
2023/02/03 06:57:29;;;;;;;6.00;4.87;;;;;;;;;;4936284;28;21031;-85
2023/02/03 06:59:57;;;;;;;4.50;3.90;;;;;;;;;;4955577;28;20228;-83
2023/02/03 07:02:23;;;;;;;6.03;4.60;;;;;;;;;;4938773;28;20256;-83
2023/02/03 07:04:49;;;;;;;7.87;4.90;;;;;;;;;;4954571;28;20759;-81
2023/02/03 07:07:14;;;;;;;7.53;4.23;;;;;;;;;;4924470;28;20234;-84
2023/02/03 07:09:42;;;;;;;6.23;5.13;;;;;;;;;;4950744;28;20242;-84
2023/02/03 07:12:10;;;;;;;8.03;5.23;;;;;;;;;;4911631;28;20357;-82
2023/02/03 07:14:38;;;;;;;4.50;4.07;;;;;;;;;;4939604;28;20230;-85
2023/02/03 07:17:06;;;;;;;5.47;4.33;;;;;;;;;;4937957;28;20265;-85
2023/02/03 07:19:36;;;;;;;4.70;4.37;;;;;;;;;;4971114;28;20226;-85
2023/02/03 07:22:04;;;;;;;4.30;4.00;;;;;;;;;;4936734;28;20234;-81
2023/02/03 07:24:32;;;;;;;5.27;4.77;;;;;;;;;;4949870;28;20978;-86
2023/02/03 07:26:57;;;;;;;7.73;4.90;;;;;;;;;;4954996;28;20233;-85
2023/02/03 07:29:23;;;;;;;7.73;4.70;;;;;;;;;;4926939;28;20227;-84
2023/02/03 07:31:48;;;;;;;7.20;5.93;;;;;;;;;;4952292;28;20226;-83
2023/02/03 07:34:14;;;;;;;6.37;5.43;;;;;;;;;;4938186;28;20604;-85
2023/02/03 07:36:40;;;;;;;8.67;5.73;;;;;;;;;;4943178;28;20223;-86
2023/02/03 07:39:05;;;;;;;6.90;5.80;;;;;;;;;;4922151;28;20222;-79
2023/02/03 07:41:31;;;;;;;6.97;5.43;;;;;;;;;;4925887;28;20226;-83
2023/02/03 07:43:57;;;;;;;10.47;6.40;;;;;;;;;;4940557;28;20303;-82
2023/02/03 07:46:24;;;;;;;9.77;5.73;;;;;;;;;;4947057;28;20239;-85
2023/02/03 07:48:54;;;;;;;6.50;5.50;;;;;;;;;;4953323;28;20852;-86
2023/02/03 07:51:23;;;;;;;9.43;4.93;;;;;;;;;;4936417;28;20313;-80
2023/02/03 07:53:48;;;;;;;8.47;5.73;;;;;;;;;;4960441;28;20234;-83
2023/02/03 07:56:14;;;;;;;6.27;5.67;;;;;;;;;;4967477;28;20581;-82
2023/02/03 07:58:42;;;;;;;9.13;5.87;;;;;;;;;;4941059;28;20237;-81
2023/02/03 08:01:12;;;;;;;7.90;6.10;;;;;;;;;;4958190;28;20242;-82
2023/02/03 08:03:37;;;;;;;5.90;5.30;;;;;;;;;;4926522;29;20227;-86
2023/02/03 08:06:03;;;;;;;7.57;5.63;;;;;;;;;;4948563;28;20248;-84
2023/02/03 08:08:30;;;;;;;7.70;6.00;;;;;;;;;;4940187;29;20230;-85
2023/02/03 08:10:57;;;;;;;6.53;4.90;;;;;;;;;;4939651;28;20234;-83
2023/02/03 08:13:25;;;;;;;9.03;5.60;;;;;;;;;;4964710;28;21385;-83
2023/02/03 08:15:51;;;;;;;8.13;6.03;;;;;;;;;;4953742;28;20314;-82
2023/02/03 08:18:20;;;;;;;7.27;5.53;;;;;;;;;;4938914;28;20226;-84
2023/02/03 08:20:46;;;;;;;5.37;4.87;;;;;;;;;;4953301;28;20600;-83
2023/02/03 08:23:14;;;;;;;10.07;5.20;;;;;;;;;;4955027;28;20215;-84
2023/02/03 08:25:40;;;;;;;9.23;5.37;;;;;;;;;;4925321;29;20639;-85
2023/02/03 08:28:05;;;;;;;8.20;4.93;;;;;;;;;;4908077;28;20234;-84
2023/02/03 08:30:37;;;;;;;9.93;5.00;;;;;;;;;;4939011;28;20238;-84
2023/02/03 08:33:02;;;;;;;4.97;4.03;;;;;;;;;;4940999;28;20218;-81
2023/02/03 08:35:33;;;;;;;8.77;4.20;;;;;;;;;;4938744;28;20245;-83
2023/02/03 08:37:58;;;;;;;9.83;4.00;;;;;;;;;;4955861;28;20234;-83
2023/02/03 08:40:24;;;;;;;9.00;4.43;;;;;;;;;;4949704;28;20214;-85
2023/02/03 08:42:51;;;;;;;9.87;4.10;;;;;;;;;;4971610;28;20238;-83
2023/02/03 08:45:20;;;;;;;6.57;3.43;;;;;;;;;;4921481;28;20234;-84
2023/02/03 08:47:47;;;;;;;7.03;3.63;;;;;;;;;;4952091;28;20236;-85
2023/02/03 08:50:18;;;;;;;7.70;3.57;;;;;;;;;;4917021;28;20311;-84
2023/02/03 08:52:48;;;;;;;7.50;3.97;;;;;;;;;;4934810;28;20227;-85
2023/02/03 08:55:14;;;;;;;17.23;4.10;;;;;;;;;;4926053;28;20370;-81
2023/02/03 08:57:40;;;;;;;9.40;3.67;;;;;;;;;;4946412;28;20269;-82
2023/02/03 09:00:09;;;;;;;8.93;4.10;;;;;;;;;;4953808;28;20226;-85
2023/02/03 09:02:37;;;;;;;5.23;3.43;;;;;;;;;;4941644;28;20251;-81
2023/02/03 09:05:03;;;;;;;6.60;2.97;;;;;;;;;;4986801;28;20223;-83
2023/02/03 09:07:28;;;;;;;9.10;3.30;;;;;;;;;;4950703;28;20723;-83
2023/02/03 09:09:56;;;;;;;7.63;3.27;;;;;;;;;;4954228;28;20234;-82
2023/02/03 09:12:24;;;;;;;5.73;2.50;;;;;;;;;;4949868;28;20223;-85
2023/02/03 09:14:49;;;;;;;5.50;2.40;;;;;;;;;;4931026;29;20289;-81
2023/02/03 09:17:15;;;;;;;7.97;2.70;;;;;;;;;;4966001;28;20235;-85
2023/02/03 09:19:40;;;;;;;10.70;2.57;;;;;;;;;;4953212;28;20234;-80
2023/02/03 09:22:06;;;;;;;9.30;2.83;;;;;;;;;;4959369;28;20222;-84
2023/02/03 09:24:32;;;;;;;2.00;1.50;;;;;;;;;;4941864;28;20231;-81
2023/02/03 09:26:59;;;;;;;0.10;0.10;;;;;;;;;;4957096;28;20261;-85
2023/02/03 09:29:25;;;;;;;0.10;0.10;;;;;;;;;;4963495;28;20223;-82
2023/02/03 09:31:53;;;;;;;0.10;0.10;;;;;;;;;;4966672;28;20226;-82
2023/02/03 09:34:19;;;;;;;0.27;0.27;;;;;;;;;;4953243;28;20728;-83
2023/02/03 09:36:48;;;;;;;0.10;0.10;;;;;;;;;;4965126;28;20759;-81
2023/02/03 09:39:16;;;;;;;0.10;0.10;;;;;;;;;;4925350;28;20215;-83
2023/02/03 09:41:52;;;;;;;0.10;0.10;;;;;;;;;;4923244;29;20227;-83
2023/02/03 09:44:35;;;;;;;0.30;0.30;;;;;;;;;;4936944;28;20226;-81
2023/02/03 09:47:16;;;;;;;0.10;0.10;;;;;;;;;;4954668;28;20219;-82
2023/02/03 09:49:46;;;;;;;0.37;0.37;;;;;;;;;;4936417;28;20226;-81
2023/02/03 09:52:26;;;;;;;0.50;0.50;;;;;;;;;;4954121;28;20219;-84
2023/02/03 09:54:57;;;;;;;0.20;0.20;;;;;;;;;;4941431;28;20250;-83
2023/02/03 09:57:27;;;;;;;0.20;0.20;;;;;;;;;;4930175;28;20251;-84
2023/02/03 09:59:53;;;;;;;0.50;0.50;;;;;;;;;;4947516;28;20329;-84
2023/02/03 10:02:18;;;;;;;1.50;1.13;;;;;;;;;;4945016;28;20242;-83
2023/02/03 10:04:54;;;;;;;0.10;0.10;;;;;;;;;;4963293;28;20230;-81
2023/02/03 10:07:29;;;;;;;2.73;0.87;;;;;;;;;;4916899;28;20226;-85
2023/02/03 10:10:08;;;;;;;0.20;0.20;;;;;;;;;;4973809;28;20228;-84
2023/02/03 10:12:47;;;;;;;0.10;0.10;;;;;;;;;;4948034;28;20238;-81
2023/02/03 10:15:34;;;;;;;0.20;0.20;;;;;;;;;;4961739;28;20230;-82
2023/02/03 10:18:06;;;;;;;0.33;0.33;;;;;;;;;;4963242;28;20290;-82
2023/02/03 10:20:56;;;;;;;0.13;0.13;;;;;;;;;;4953136;28;20219;-82
2023/02/03 10:23:40;;;;;;;0.50;0.50;;;;;;;;;;4980586;28;20230;-84
2023/02/03 10:26:08;;;;;;;0.00;0.00;;;;;;;;;;4949910;28;20739;-80
2023/02/03 10:28:39;;;;;;;1.80;1.20;;;;;;;;;;4932244;28;20228;-81
2023/02/03 10:31:12;;;;;;;0.10;0.10;;;;;;;;;;4936741;28;20253;-82
2023/02/03 10:33:37;;;;;;;0.33;0.33;;;;;;;;;;4927783;28;20229;-84
2023/02/03 10:36:29;;;;;;;1.57;1.23;;;;;;;;;;4961506;28;20230;-83
2023/02/03 10:39:13;;;;;;;0.60;0.60;;;;;;;;;;4953896;28;20251;-82
2023/02/03 10:41:44;;;;;;;1.93;0.80;;;;;;;;;;4971131;28;20231;-83
2023/02/03 10:44:11;;;;;;;1.60;0.67;;;;;;;;;;4924284;28;20313;-83
2023/02/03 10:46:38;;;;;;;0.10;0.10;;;;;;;;;;4953935;28;20282;-83
2023/02/03 10:49:05;;;;;;;1.30;1.20;;;;;;;;;;4922059;28;20247;-81
2023/02/03 10:51:40;;;;;;;0.50;0.50;;;;;;;;;;4936848;28;20227;-82
2023/02/03 10:54:29;;;;;;;0.30;0.30;;;;;;;;;;4951179;28;20219;-83
2023/02/03 10:56:56;;;;;;;0.40;0.40;;;;;;;;;;4964349;28;20247;-80
2023/02/03 10:59:33;;;;;;;0.50;0.50;;;;;;;;;;4948191;28;20692;-82
2023/02/03 11:02:20;;;;;;;1.20;0.93;;;;;;;;;;4951898;28;20222;-83
2023/02/03 11:04:45;;;;;;;29.27;3.23;;;;;;;;;;4982951;28;20269;-83
2023/02/03 11:07:23;;;;;;;0.10;0.10;;;;;;;;;;4944754;28;20293;-86
2023/02/03 11:09:51;;;;;;;0.10;0.10;;;;;;;;;;4973713;28;20227;-83
2023/02/03 11:12:19;;;;;;;1.17;1.17;;;;;;;;;;4954636;28;20219;-83
2023/02/03 11:14:46;;;;;;;18.07;3.40;;;;;;;;;;4928858;28;20289;-81
2023/02/03 11:17:17;;;;;;;23.77;5.57;;;;;;;;;;4961331;28;20230;-82
2023/02/03 11:19:48;;;;;;;22.27;5.60;;;;;;;;;;4953525;28;20226;-82
2023/02/03 11:22:30;;;;;;;27.80;6.07;;;;;;;;;;4952169;28;21010;-82
2023/02/03 11:24:56;;;;;;;26.00;5.33;;;;;;;;;;4950292;28;20227;-83
2023/02/03 11:27:23;;;;;;;23.53;5.50;;;;;;;;;;4956239;28;20570;-83
2023/02/03 11:30:18;;;;;;;19.30;5.90;;;;;;;;;;4951917;28;20223;-83
2023/02/03 11:32:45;;;;;;;15.60;5.20;;;;;;;;;;4959987;28;20237;-84
2023/02/03 11:35:14;;;;;;;15.77;4.57;;;;;;;;;;4934000;28;20227;-79
2023/02/03 11:37:42;;;;;;;19.97;5.60;;;;;;;;;;4957812;28;20246;-83
2023/02/03 11:40:07;;;;;;;12.07;4.17;;;;;;;;;;4957367;28;20335;-83
2023/02/03 11:42:37;;;;;;;16.10;4.73;;;;;;;;;;4946688;28;20258;-80
2023/02/03 11:45:13;;;;;;;18.23;4.97;;;;;;;;;;4959083;28;20230;-82
2023/02/03 11:48:00;;;;;;;16.23;4.43;;;;;;;;;;4971940;28;20314;-82
2023/02/03 11:50:46;;;;;;;14.23;4.30;;;;;;;;;;4954311;28;20230;-79
2023/02/03 11:53:12;;;;;;;17.67;4.63;;;;;;;;;;4973663;28;20231;-81
2023/02/03 11:55:38;;;;;;;16.93;4.50;;;;;;;;;;4965863;28;20235;-81
2023/02/03 11:58:16;;;;;;;15.20;4.97;;;;;;;;;;4969054;28;21191;-81
2023/02/03 12:01:05;;;;;;;21.00;5.53;;;;;;;;;;4959649;28;20312;-82
2023/02/03 12:04:17;;;;;;;19.90;7.70;;;;;;;;;;4936235;29;20330;-80
2023/02/03 12:07:44;;;;;;;13.70;3.63;;;;;;;;;;4950579;28;20234;-84
2023/02/03 12:10:33;;;;;;;14.53;3.97;;;;;;;;;;4968529;28;20227;-81
2023/02/03 12:13:20;;;;;;;16.90;4.57;;;;;;;;;;4970012;28;20235;-81
2023/02/03 12:16:02;;;;;;;17.27;4.63;;;;;;;;;;4955794;28;20238;-82
2023/02/03 12:18:38;;;;;;;14.30;4.67;;;;;;;;;;4970468;28;20234;-83
2023/02/03 12:21:22;;;;;;;14.80;4.20;;;;;;;;;;4976981;28;20222;-79
2023/02/03 12:24:06;;;;;;;18.03;4.53;;;;;;;;;;4937646;28;20298;-83
2023/02/03 12:26:45;;;;;;;13.07;4.00;;;;;;;;;;4956417;28;20313;-82
2023/02/03 12:29:25;;;;;;;18.03;3.97;;;;;;;;;;4939405;28;20225;-84
2023/02/03 12:32:09;;;;;;;19.30;4.57;;;;;;;;;;4970726;28;20285;-84
2023/02/03 12:34:53;;;;;;;11.27;4.20;;;;;;;;;;4965115;28;20235;-82
2023/02/03 12:37:42;;;;;;;13.30;4.40;;;;;;;;;;4978956;28;20251;-85
2023/02/03 12:40:33;;;;;;;14.40;4.53;;;;;;;;;;4958890;28;20226;-84
2023/02/03 12:43:20;;;;;;;11.90;4.73;;;;;;;;;;4982487;28;20233;-85
2023/02/03 12:45:58;;;;;;;17.97;3.77;;;;;;;;;;4964834;28;20314;-86
2023/02/03 12:48:27;;;;;;;16.00;4.33;;;;;;;;;;4975416;28;20235;-86
2023/02/03 12:50:57;;;;;;;16.00;4.37;;;;;;;;;;4957990;28;20314;-87
2023/02/03 12:53:23;;;;;;;15.63;4.70;;;;;;;;;;4953044;28;21568;-85
2023/02/03 12:55:59;;;;;;;12.53;4.07;;;;;;;;;;4939982;28;20239;-85
2023/02/03 12:58:38;;;;;;;13.20;4.60;;;;;;;;;;4941942;28;20278;-85
2023/02/03 13:01:05;;;;;;;11.67;3.40;;;;;;;;;;4968160;28;20226;-85
2023/02/03 13:03:48;;;;;;;15.57;4.63;;;;;;;;;;4939738;28;20298;-84
2023/02/03 13:06:25;;;;;;;15.27;4.67;;;;;;;;;;4954264;28;20479;-85
2023/02/03 13:09:01;;;;;;;16.20;4.07;;;;;;;;;;4938618;28;20231;-84
2023/02/03 13:11:35;;;;;;;15.90;4.50;;;;;;;;;;4973833;28;20229;-86
2023/02/03 13:14:27;;;;;;;11.50;3.60;;;;;;;;;;4957054;28;20237;-84
2023/02/03 13:16:56;;;;;;;12.73;4.03;;;;;;;;;;4969820;28;20309;-85
2023/02/03 13:19:26;;;;;;;15.83;3.60;;;;;;;;;;4941443;28;20962;-84
2023/02/03 13:21:51;;;;;;;14.70;4.30;;;;;;;;;;4940367;28;20238;-81
2023/02/03 13:24:22;;;;;;;13.30;4.30;;;;;;;;;;4903267;28;20693;-82
2023/02/03 13:27:13;;;;;;;15.80;4.30;;;;;;;;;;4943892;28;20226;-81
2023/02/03 13:30:00;;;;;;;10.30;3.43;;;;;;;;;;4952655;28;20774;-82
2023/02/03 13:32:40;;;;;;;11.67;4.20;;;;;;;;;;4966077;28;20231;-87
2023/02/03 13:35:12;;;;;;;14.70;3.73;;;;;;;;;;4941515;28;20250;-86
2023/02/03 13:38:21;;;;;;;14.53;3.97;;;;;;;;;;4970920;28;20265;-86
2023/02/03 13:40:55;;;;;;;21.03;4.97;;;;;;;;;;4933053;29;20232;-86
2023/02/03 13:43:32;;;;;;;15.97;4.00;;;;;;;;;;4941863;28;20239;-86
2023/02/03 13:45:58;;;;;;;12.77;3.30;;;;;;;;;;4951706;28;20237;-85
2023/02/03 13:48:25;;;;;;;15.30;4.30;;;;;;;;;;4944277;28;20215;-85
2023/02/03 13:51:05;;;;;;;10.20;4.17;;;;;;;;;;4934643;28;20238;-85
2023/02/03 13:53:38;;;;;;;13.53;3.93;;;;;;;;;;4966433;28;20310;-83
2023/02/03 13:56:17;;;;;;;14.93;4.30;;;;;;;;;;4953167;28;20222;-83
2023/02/03 13:58:42;;;;;;;15.30;4.30;;;;;;;;;;4929968;28;21484;-86
2023/02/03 14:01:26;;;;;;;13.43;3.47;;;;;;;;;;4937805;28;20231;-84
2023/02/03 14:03:52;;;;;;;10.87;3.83;;;;;;;;;;4968042;28;20269;-84
2023/02/03 14:06:53;;;;;;;21.37;4.23;;;;;;;;;;4951766;28;20222;-83
2023/02/03 14:09:22;;;;;;;13.03;4.03;;;;;;;;;;4955964;28;20204;-84
2023/02/03 14:11:52;;;;;;;14.87;4.20;;;;;;;;;;4939719;28;20296;-82
2023/02/03 14:14:19;;;;;;;10.87;3.97;;;;;;;;;;4949641;28;20226;-85
2023/02/03 14:16:49;;;;;;;16.50;3.83;;;;;;;;;;4949494;28;20262;-84
2023/02/03 14:19:23;;;;;;;12.83;3.80;;;;;;;;;;4940193;28;20253;-84
2023/02/03 14:22:07;;;;;;;12.77;4.10;;;;;;;;;;4953373;28;20238;-82
2023/02/03 14:24:41;;;;;;;18.20;4.53;;;;;;;;;;4965571;28;20226;-84
2023/02/03 14:27:15;;;;;;;12.77;4.13;;;;;;;;;;4955175;28;20265;-83
2023/02/03 14:29:41;;;;;;;11.87;3.80;;;;;;;;;;4954080;28;20241;-81
2023/02/03 14:32:12;;;;;;;12.70;3.93;;;;;;;;;;4948401;28;20541;-82
2023/02/03 14:34:41;;;;;;;12.90;4.20;;;;;;;;;;4958828;28;20225;-83
2023/02/03 14:37:17;;;;;;;13.10;3.87;;;;;;;;;;4941054;28;20234;-82
2023/02/03 14:39:54;;;;;;;16.87;3.47;;;;;;;;;;4936571;28;20223;-83
2023/02/03 14:42:54;;;;;;;14.67;4.10;;;;;;;;;;4951571;28;20222;-83
2023/02/03 14:45:40;;;;;;;11.93;4.10;;;;;;;;;;4967318;28;20865;-84
2023/02/03 14:48:17;;;;;;;18.33;7.67;;;;;;;;;;4963581;28;20219;-86
2023/02/03 14:51:07;;;;;;;17.47;6.97;;;;;;;;;;4966199;28;20238;-84
2023/02/03 14:53:57;;;;;;;12.97;4.57;;;;;;;;;;4953264;28;20826;-86
2023/02/03 14:59:50;;;;;;;13.53;4.77;;;;;;;;;;4966211;28;20705;-86
2023/02/03 15:02:30;;;;;;;13.50;4.40;;;;;;;;;;4967263;28;20253;-85
2023/02/03 15:05:10;;;;;;;12.27;4.30;;;;;;;;;;4965902;28;20222;-82
2023/02/03 15:07:44;;;;;;;13.37;4.50;;;;;;;;;;4967895;28;20313;-83
2023/02/03 15:10:19;;;;;;;18.40;4.10;;;;;;;;;;4964844;28;20234;-83
2023/02/03 15:12:47;;;;;;;12.90;3.90;;;;;;;;;;4956813;28;20233;-84